Zilair, Russia
Current Conditions -  °F | °C
As of 9:00 PM on Saturday 25 Oct 2014 (Local Time) from UWOR Reporting Station
Broken Clouds Broken Clouds  
Wind Chill:   Ceiling: 4000
Heat Index: 16°   Visibility: 6mi
Dew Point: 12°   Wind: 11mph
Humidity: 86%   Direction: 310°NW
Pressure: 30.09"   Gusts: NA
Location:  52.23°N, 57.44°E
Report Text: UWOR 251600Z 31005MPS 9999 BKN040CB M09/M11 Q1019 25450057NOSIG RMK QFE740/0987
Loading
Personal Weather Stations






























Interactive Weather Map
Tropical Storm Tracking
New forecast layout! Learn more

10-Day Weather Forecast

Advertisements
Track Severe Weather on mobile